sensor_id;sensor_type;location;lat;lon;timestamp;P1;durP1;ratioP1;P2;durP2;ratioP2
65835;SDS011;52595;51.608;7.216;2023-06-10T00:01:36;11.23;;;8.48;;
65835;SDS011;52595;51.608;7.216;2023-06-10T00:04:02;9.20;;;8.05;;
65835;SDS011;52595;51.608;7.216;2023-06-10T00:06:29;12.38;;;8.32;;
65835;SDS011;52595;51.608;7.216;2023-06-10T00:09:03;10.85;;;8.43;;
65835;SDS011;52595;51.608;7.216;2023-06-10T00:11:33;12.93;;;8.68;;
65835;SDS011;52595;51.608;7.216;2023-06-10T00:13:58;11.20;;;8.75;;
65835;SDS011;52595;51.608;7.216;2023-06-10T00:16:24;12.98;;;8.63;;
65835;SDS011;52595;51.608;7.216;2023-06-10T00:18:50;12.02;;;8.98;;
65835;SDS011;52595;51.608;7.216;2023-06-10T00:21:20;13.93;;;9.52;;
65835;SDS011;52595;51.608;7.216;2023-06-10T00:23:46;13.40;;;8.88;;
65835;SDS011;52595;51.608;7.216;2023-06-10T00:26:12;12.95;;;9.45;;
65835;SDS011;52595;51.608;7.216;2023-06-10T00:28:37;11.32;;;9.35;;
65835;SDS011;52595;51.608;7.216;2023-06-10T00:31:02;12.45;;;9.35;;
65835;SDS011;52595;51.608;7.216;2023-06-10T00:33:29;10.73;;;9.10;;
65835;SDS011;52595;51.608;7.216;2023-06-10T00:35:54;11.93;;;9.35;;
65835;SDS011;52595;51.608;7.216;2023-06-10T00:38:20;13.57;;;9.70;;
65835;SDS011;52595;51.608;7.216;2023-06-10T00:40:45;10.90;;;9.18;;
65835;SDS011;52595;51.608;7.216;2023-06-10T00:43:11;12.10;;;9.48;;
65835;SDS011;52595;51.608;7.216;2023-06-10T00:45:36;11.68;;;9.25;;
65835;SDS011;52595;51.608;7.216;2023-06-10T00:48:02;14.07;;;9.55;;
65835;SDS011;52595;51.608;7.216;2023-06-10T00:50:29;12.35;;;9.27;;
65835;SDS011;52595;51.608;7.216;2023-06-10T00:52:56;13.70;;;9.93;;
65835;SDS011;52595;51.608;7.216;2023-06-10T00:55:21;13.73;;;9.32;;
65835;SDS011;52595;51.608;7.216;2023-06-10T00:57:48;12.15;;;9.45;;
65835;SDS011;52595;51.608;7.216;2023-06-10T01:00:15;11.05;;;9.73;;
65835;SDS011;52595;51.608;7.216;2023-06-10T01:02:40;13.30;;;10.05;;
65835;SDS011;52595;51.608;7.216;2023-06-10T01:05:07;14.52;;;9.85;;
65835;SDS011;52595;51.608;7.216;2023-06-10T01:07:36;14.32;;;10.60;;
65835;SDS011;52595;51.608;7.216;2023-06-10T01:10:11;12.07;;;9.95;;
65835;SDS011;52595;51.608;7.216;2023-06-10T01:12:59;11.38;;;9.57;;
65835;SDS011;52595;51.608;7.216;2023-06-10T01:15:31;12.93;;;10.10;;
65835;SDS011;52595;51.608;7.216;2023-06-10T01:17:58;14.68;;;10.63;;
65835;SDS011;52595;51.608;7.216;2023-06-10T01:20:26;13.88;;;10.43;;
65835;SDS011;52595;51.608;7.216;2023-06-10T01:22:55;12.65;;;10.40;;
65835;SDS011;52595;51.608;7.216;2023-06-10T01:25:23;12.48;;;9.88;;
65835;SDS011;52595;51.608;7.216;2023-06-10T01:28:14;12.47;;;10.00;;
65835;SDS011;52595;51.608;7.216;2023-06-10T01:30:44;14.25;;;10.45;;
65835;SDS011;52595;51.608;7.216;2023-06-10T01:33:16;12.82;;;10.30;;
65835;SDS011;52595;51.608;7.216;2023-06-10T01:35:47;13.40;;;10.45;;
65835;SDS011;52595;51.608;7.216;2023-06-10T01:38:13;13.13;;;10.10;;
65835;SDS011;52595;51.608;7.216;2023-06-10T01:40:41;12.52;;;10.25;;
65835;SDS011;52595;51.608;7.216;2023-06-10T01:43:07;13.77;;;10.35;;
65835;SDS011;52595;51.608;7.216;2023-06-10T01:45:32;16.35;;;10.60;;
65835;SDS011;52595;51.608;7.216;2023-06-10T01:47:58;17.45;;;10.45;;
65835;SDS011;52595;51.608;7.216;2023-06-10T01:50:23;15.80;;;10.10;;
65835;SDS011;52595;51.608;7.216;2023-06-10T01:52:48;14.48;;;10.43;;
65835;SDS011;52595;51.608;7.216;2023-06-10T01:55:14;12.55;;;10.60;;
65835;SDS011;52595;51.608;7.216;2023-06-10T01:57:39;11.63;;;9.70;;
65835;SDS011;52595;51.608;7.216;2023-06-10T02:00:05;14.82;;;10.25;;
65835;SDS011;52595;51.608;7.216;2023-06-10T02:02:35;14.45;;;10.23;;
65835;SDS011;52595;51.608;7.216;2023-06-10T02:05:00;12.70;;;10.40;;
65835;SDS011;52595;51.608;7.216;2023-06-10T02:07:26;14.95;;;10.02;;
65835;SDS011;52595;51.608;7.216;2023-06-10T02:09:51;13.80;;;9.90;;
65835;SDS011;52595;51.608;7.216;2023-06-10T02:12:16;13.10;;;9.88;;
65835;SDS011;52595;51.608;7.216;2023-06-10T02:14:42;13.27;;;10.07;;
65835;SDS011;52595;51.608;7.216;2023-06-10T02:17:07;13.63;;;10.65;;
65835;SDS011;52595;51.608;7.216;2023-06-10T02:19:37;12.55;;;10.27;;
65835;SDS011;52595;51.608;7.216;2023-06-10T02:22:07;12.95;;;9.98;;
65835;SDS011;52595;51.608;7.216;2023-06-10T02:24:32;13.02;;;10.60;;
65835;SDS011;52595;51.608;7.216;2023-06-10T02:26:58;16.05;;;10.02;;
65835;SDS011;52595;51.608;7.216;2023-06-10T02:29:25;15.25;;;9.68;;
65835;SDS011;52595;51.608;7.216;2023-06-10T02:31:50;14.18;;;10.20;;
65835;SDS011;52595;51.608;7.216;2023-06-10T02:34:17;13.88;;;9.70;;
65835;SDS011;52595;51.608;7.216;2023-06-10T02:36:43;14.77;;;9.68;;
65835;SDS011;52595;51.608;7.216;2023-06-10T02:39:09;12.77;;;9.70;;
65835;SDS011;52595;51.608;7.216;2023-06-10T02:41:34;13.38;;;9.73;;
65835;SDS011;52595;51.608;7.216;2023-06-10T02:44:00;14.00;;;9.38;;
65835;SDS011;52595;51.608;7.216;2023-06-10T02:46:26;12.98;;;9.48;;
65835;SDS011;52595;51.608;7.216;2023-06-10T02:48:53;11.98;;;9.27;;
65835;SDS011;52595;51.608;7.216;2023-06-10T02:51:19;13.32;;;9.65;;
65835;SDS011;52595;51.608;7.216;2023-06-10T02:53:45;14.68;;;9.82;;
65835;SDS011;52595;51.608;7.216;2023-06-10T02:56:11;13.95;;;9.38;;
65835;SDS011;52595;51.608;7.216;2023-06-10T02:58:37;12.70;;;9.57;;
65835;SDS011;52595;51.608;7.216;2023-06-10T03:01:03;12.75;;;9.57;;
65835;SDS011;52595;51.608;7.216;2023-06-10T03:03:28;12.73;;;9.10;;
65835;SDS011;52595;51.608;7.216;2023-06-10T03:05:55;13.70;;;9.25;;
65835;SDS011;52595;51.608;7.216;2023-06-10T03:08:21;14.07;;;9.18;;
65835;SDS011;52595;51.608;7.216;2023-06-10T03:10:47;13.07;;;9.40;;
65835;SDS011;52595;51.608;7.216;2023-06-10T03:13:12;10.93;;;9.27;;
65835;SDS011;52595;51.608;7.216;2023-06-10T03:15:39;11.85;;;9.13;;
65835;SDS011;52595;51.608;7.216;2023-06-10T03:18:05;12.70;;;9.23;;
65835;SDS011;52595;51.608;7.216;2023-06-10T03:20:31;14.23;;;9.00;;
65835;SDS011;52595;51.608;7.216;2023-06-10T03:25:28;12.27;;;8.65;;
65835;SDS011;52595;51.608;7.216;2023-06-10T03:27:55;11.35;;;8.63;;
65835;SDS011;52595;51.608;7.216;2023-06-10T03:30:21;16.73;;;9.23;;
65835;SDS011;52595;51.608;7.216;2023-06-10T03:32:46;12.32;;;8.75;;
65835;SDS011;52595;51.608;7.216;2023-06-10T03:35:11;12.63;;;8.85;;
65835;SDS011;52595;51.608;7.216;2023-06-10T03:37:37;11.90;;;8.43;;
65835;SDS011;52595;51.608;7.216;2023-06-10T03:40:02;14.70;;;8.35;;
65835;SDS011;52595;51.608;7.216;2023-06-10T03:42:28;13.23;;;8.63;;
65835;SDS011;52595;51.608;7.216;2023-06-10T03:44:54;10.90;;;8.32;;
65835;SDS011;52595;51.608;7.216;2023-06-10T03:47:20;10.18;;;7.95;;
65835;SDS011;52595;51.608;7.216;2023-06-10T03:49:46;12.18;;;8.00;;
65835;SDS011;52595;51.608;7.216;2023-06-10T03:52:11;11.90;;;8.15;;
65835;SDS011;52595;51.608;7.216;2023-06-10T03:54:37;13.68;;;8.13;;
65835;SDS011;52595;51.608;7.216;2023-06-10T03:57:02;14.68;;;7.85;;
65835;SDS011;52595;51.608;7.216;2023-06-10T03:59:28;13.30;;;7.78;;
65835;SDS011;52595;51.608;7.216;2023-06-10T04:01:54;12.35;;;7.72;;
65835;SDS011;52595;51.608;7.216;2023-06-10T04:04:19;12.23;;;8.20;;
65835;SDS011;52595;51.608;7.216;2023-06-10T04:06:45;10.23;;;7.40;;
65835;SDS011;52595;51.608;7.216;2023-06-10T04:09:11;10.95;;;7.68;;
65835;SDS011;52595;51.608;7.216;2023-06-10T04:11:37;10.95;;;7.47;;
65835;SDS011;52595;51.608;7.216;2023-06-10T04:14:03;11.65;;;7.80;;
65835;SDS011;52595;51.608;7.216;2023-06-10T04:16:28;11.70;;;7.95;;
65835;SDS011;52595;51.608;7.216;2023-06-10T04:18:54;9.93;;;7.38;;
65835;SDS011;52595;51.608;7.216;2023-06-10T04:21:19;11.02;;;7.65;;
65835;SDS011;52595;51.608;7.216;2023-06-10T04:23:45;12.93;;;8.15;;
65835;SDS011;52595;51.608;7.216;2023-06-10T04:26:10;12.88;;;7.43;;
65835;SDS011;52595;51.608;7.216;2023-06-10T04:28:37;12.48;;;7.60;;
65835;SDS011;52595;51.608;7.216;2023-06-10T04:31:03;11.45;;;7.70;;
65835;SDS011;52595;51.608;7.216;2023-06-10T04:33:29;13.23;;;7.53;;
65835;SDS011;52595;51.608;7.216;2023-06-10T04:35:55;12.02;;;7.88;;
65835;SDS011;52595;51.608;7.216;2023-06-10T04:38:20;13.05;;;7.70;;
65835;SDS011;52595;51.608;7.216;2023-06-10T04:40:46;10.73;;;7.35;;
65835;SDS011;52595;51.608;7.216;2023-06-10T04:43:11;10.35;;;7.03;;
65835;SDS011;52595;51.608;7.216;2023-06-10T04:45:38;12.73;;;7.43;;
65835;SDS011;52595;51.608;7.216;2023-06-10T04:48:03;10.90;;;7.43;;
65835;SDS011;52595;51.608;7.216;2023-06-10T04:50:28;15.27;;;7.28;;
65835;SDS011;52595;51.608;7.216;2023-06-10T04:52:54;11.18;;;7.00;;
65835;SDS011;52595;51.608;7.216;2023-06-10T04:55:22;11.25;;;6.95;;
65835;SDS011;52595;51.608;7.216;2023-06-10T04:57:48;11.93;;;7.43;;
65835;SDS011;52595;51.608;7.216;2023-06-10T05:00:13;10.35;;;6.85;;
65835;SDS011;52595;51.608;7.216;2023-06-10T05:02:39;9.82;;;6.93;;
65835;SDS011;52595;51.608;7.216;2023-06-10T05:05:04;9.27;;;6.70;;
65835;SDS011;52595;51.608;7.216;2023-06-10T05:07:31;12.15;;;6.85;;
65835;SDS011;52595;51.608;7.216;2023-06-10T05:09:56;10.30;;;7.05;;
65835;SDS011;52595;51.608;7.216;2023-06-10T05:12:22;11.40;;;6.72;;
65835;SDS011;52595;51.608;7.216;2023-06-10T05:14:47;10.57;;;6.57;;
65835;SDS011;52595;51.608;7.216;2023-06-10T05:17:13;12.80;;;6.65;;
65835;SDS011;52595;51.608;7.216;2023-06-10T05:19:38;12.70;;;7.00;;
65835;SDS011;52595;51.608;7.216;2023-06-10T05:22:04;9.43;;;6.68;;
65835;SDS011;52595;51.608;7.216;2023-06-10T05:24:29;10.75;;;6.78;;
65835;SDS011;52595;51.608;7.216;2023-06-10T05:26:55;9.20;;;6.82;;
65835;SDS011;52595;51.608;7.216;2023-06-10T05:29:20;10.18;;;6.75;;
65835;SDS011;52595;51.608;7.216;2023-06-10T05:31:45;12.27;;;7.25;;
65835;SDS011;52595;51.608;7.216;2023-06-10T05:34:11;15.13;;;6.90;;
65835;SDS011;52595;51.608;7.216;2023-06-10T05:36:36;9.82;;;6.55;;
65835;SDS011;52595;51.608;7.216;2023-06-10T05:39:02;11.23;;;7.53;;
65835;SDS011;52595;51.608;7.216;2023-06-10T05:41:28;9.95;;;6.60;;
65835;SDS011;52595;51.608;7.216;2023-06-10T05:43:53;12.25;;;7.20;;
65835;SDS011;52595;51.608;7.216;2023-06-10T05:46:19;9.00;;;6.47;;
65835;SDS011;52595;51.608;7.216;2023-06-10T05:48:45;11.00;;;6.68;;
65835;SDS011;52595;51.608;7.216;2023-06-10T05:51:10;10.68;;;6.43;;
65835;SDS011;52595;51.608;7.216;2023-06-10T05:53:36;10.90;;;7.07;;
65835;SDS011;52595;51.608;7.216;2023-06-10T05:56:01;12.80;;;6.63;;
65835;SDS011;52595;51.608;7.216;2023-06-10T05:58:26;9.40;;;6.32;;
65835;SDS011;52595;51.608;7.216;2023-06-10T06:00:52;12.65;;;6.50;;
65835;SDS011;52595;51.608;7.216;2023-06-10T06:03:17;9.40;;;6.60;;
65835;SDS011;52595;51.608;7.216;2023-06-10T06:05:43;11.70;;;6.22;;
65835;SDS011;52595;51.608;7.216;2023-06-10T06:08:09;10.00;;;6.03;;
65835;SDS011;52595;51.608;7.216;2023-06-10T06:10:34;10.85;;;6.40;;
65835;SDS011;52595;51.608;7.216;2023-06-10T06:13:00;8.13;;;5.93;;
65835;SDS011;52595;51.608;7.216;2023-06-10T06:15:26;8.52;;;5.90;;
65835;SDS011;52595;51.608;7.216;2023-06-10T06:17:52;9.98;;;6.03;;
65835;SDS011;52595;51.608;7.216;2023-06-10T06:20:18;8.18;;;5.80;;
65835;SDS011;52595;51.608;7.216;2023-06-10T06:22:46;10.10;;;5.43;;
65835;SDS011;52595;51.608;7.216;2023-06-10T06:25:12;9.23;;;5.63;;
65835;SDS011;52595;51.608;7.216;2023-06-10T06:27:37;8.90;;;5.47;;
65835;SDS011;52595;51.608;7.216;2023-06-10T06:30:03;12.25;;;6.03;;
65835;SDS011;52595;51.608;7.216;2023-06-10T06:32:29;9.52;;;5.90;;
65835;SDS011;52595;51.608;7.216;2023-06-10T06:34:54;13.07;;;5.43;;
65835;SDS011;52595;51.608;7.216;2023-06-10T06:37:23;9.50;;;5.45;;
65835;SDS011;52595;51.608;7.216;2023-06-10T06:39:50;7.60;;;5.20;;
65835;SDS011;52595;51.608;7.216;2023-06-10T06:42:16;10.70;;;5.90;;
65835;SDS011;52595;51.608;7.216;2023-06-10T06:44:42;9.07;;;5.53;;
65835;SDS011;52595;51.608;7.216;2023-06-10T06:47:07;7.97;;;5.55;;
65835;SDS011;52595;51.608;7.216;2023-06-10T06:49:32;9.52;;;5.10;;
65835;SDS011;52595;51.608;7.216;2023-06-10T06:51:58;12.38;;;5.40;;
65835;SDS011;52595;51.608;7.216;2023-06-10T06:54:23;10.32;;;5.13;;
65835;SDS011;52595;51.608;7.216;2023-06-10T06:56:52;8.45;;;5.20;;
65835;SDS011;52595;51.608;7.216;2023-06-10T06:59:17;9.60;;;5.00;;
65835;SDS011;52595;51.608;7.216;2023-06-10T07:01:44;9.10;;;4.78;;
65835;SDS011;52595;51.608;7.216;2023-06-10T07:04:10;10.07;;;5.40;;
65835;SDS011;52595;51.608;7.216;2023-06-10T07:06:35;8.02;;;5.28;;
65835;SDS011;52595;51.608;7.216;2023-06-10T07:09:01;7.75;;;4.88;;
65835;SDS011;52595;51.608;7.216;2023-06-10T07:11:26;7.03;;;4.80;;
65835;SDS011;52595;51.608;7.216;2023-06-10T07:13:52;8.57;;;4.70;;
65835;SDS011;52595;51.608;7.216;2023-06-10T07:16:17;7.43;;;4.45;;
65835;SDS011;52595;51.608;7.216;2023-06-10T07:18:45;9.98;;;4.80;;
65835;SDS011;52595;51.608;7.216;2023-06-10T07:21:11;9.60;;;5.18;;
65835;SDS011;52595;51.608;7.216;2023-06-10T07:23:36;8.70;;;4.88;;
65835;SDS011;52595;51.608;7.216;2023-06-10T07:26:02;8.52;;;4.90;;
65835;SDS011;52595;51.608;7.216;2023-06-10T07:28:27;10.07;;;4.95;;
65835;SDS011;52595;51.608;7.216;2023-06-10T07:30:52;7.90;;;4.85;;
65835;SDS011;52595;51.608;7.216;2023-06-10T07:33:18;8.55;;;4.72;;
65835;SDS011;52595;51.608;7.216;2023-06-10T07:35:43;9.52;;;4.90;;
65835;SDS011;52595;51.608;7.216;2023-06-10T07:38:08;8.80;;;4.93;;
65835;SDS011;52595;51.608;7.216;2023-06-10T07:40:34;8.95;;;4.47;;
65835;SDS011;52595;51.608;7.216;2023-06-10T07:42:59;9.32;;;4.75;;
65835;SDS011;52595;51.608;7.216;2023-06-10T07:45:25;10.27;;;4.70;;
65835;SDS011;52595;51.608;7.216;2023-06-10T07:47:50;10.88;;;4.90;;
65835;SDS011;52595;51.608;7.216;2023-06-10T07:50:16;9.00;;;4.53;;
65835;SDS011;52595;51.608;7.216;2023-06-10T07:52:41;9.13;;;5.10;;
65835;SDS011;52595;51.608;7.216;2023-06-10T07:55:06;8.45;;;4.88;;
65835;SDS011;52595;51.608;7.216;2023-06-10T07:57:32;9.98;;;4.50;;
65835;SDS011;52595;51.608;7.216;2023-06-10T08:00:01;8.80;;;4.45;;
65835;SDS011;52595;51.608;7.216;2023-06-10T08:02:29;8.35;;;4.50;;
65835;SDS011;52595;51.608;7.216;2023-06-10T08:04:55;7.53;;;4.60;;
65835;SDS011;52595;51.608;7.216;2023-06-10T08:07:20;7.47;;;4.90;;
65835;SDS011;52595;51.608;7.216;2023-06-10T08:09:47;8.00;;;4.70;;
65835;SDS011;52595;51.608;7.216;2023-06-10T08:12:12;9.07;;;4.85;;
65835;SDS011;52595;51.608;7.216;2023-06-10T08:14:38;9.93;;;4.68;;
65835;SDS011;52595;51.608;7.216;2023-06-10T08:17:03;7.82;;;4.70;;
65835;SDS011;52595;51.608;7.216;2023-06-10T08:19:30;9.88;;;5.32;;
65835;SDS011;52595;51.608;7.216;2023-06-10T08:21:56;7.45;;;4.70;;
65835;SDS011;52595;51.608;7.216;2023-06-10T08:24:21;11.32;;;4.88;;
65835;SDS011;52595;51.608;7.216;2023-06-10T08:26:47;9.55;;;4.68;;
65835;SDS011;52595;51.608;7.216;2023-06-10T08:29:12;7.43;;;4.88;;
65835;SDS011;52595;51.608;7.216;2023-06-10T08:31:40;6.57;;;4.60;;
65835;SDS011;52595;51.608;7.216;2023-06-10T08:34:07;7.35;;;4.50;;
65835;SDS011;52595;51.608;7.216;2023-06-10T08:36:32;9.43;;;4.80;;
65835;SDS011;52595;51.608;7.216;2023-06-10T08:38:57;8.25;;;4.68;;
65835;SDS011;52595;51.608;7.216;2023-06-10T08:41:23;8.15;;;4.78;;
65835;SDS011;52595;51.608;7.216;2023-06-10T08:43:59;7.63;;;4.47;;
65835;SDS011;52595;51.608;7.216;2023-06-10T08:46:34;11.57;;;5.68;;
65835;SDS011;52595;51.608;7.216;2023-06-10T08:49:03;12.27;;;4.90;;
65835;SDS011;52595;51.608;7.216;2023-06-10T08:51:31;6.55;;;4.45;;
65835;SDS011;52595;51.608;7.216;2023-06-10T08:54:01;9.55;;;5.00;;
65835;SDS011;52595;51.608;7.216;2023-06-10T08:56:30;6.03;;;4.25;;
65835;SDS011;52595;51.608;7.216;2023-06-10T08:58:58;8.88;;;4.75;;
65835;SDS011;52595;51.608;7.216;2023-06-10T09:01:24;8.65;;;5.25;;
65835;SDS011;52595;51.608;7.216;2023-06-10T09:03:51;6.82;;;4.90;;
65835;SDS011;52595;51.608;7.216;2023-06-10T09:06:17;10.32;;;5.07;;
65835;SDS011;52595;51.608;7.216;2023-06-10T09:08:43;8.90;;;4.70;;
65835;SDS011;52595;51.608;7.216;2023-06-10T09:11:08;9.93;;;4.80;;
65835;SDS011;52595;51.608;7.216;2023-06-10T09:13:34;6.97;;;4.80;;
65835;SDS011;52595;51.608;7.216;2023-06-10T09:15:59;11.27;;;4.90;;
65835;SDS011;52595;51.608;7.216;2023-06-10T09:18:27;8.63;;;4.50;;
65835;SDS011;52595;51.608;7.216;2023-06-10T09:20:55;8.95;;;4.80;;
65835;SDS011;52595;51.608;7.216;2023-06-10T09:23:21;7.85;;;4.60;;
65835;SDS011;52595;51.608;7.216;2023-06-10T09:25:53;7.50;;;5.00;;
65835;SDS011;52595;51.608;7.216;2023-06-10T09:28:21;8.43;;;5.03;;
65835;SDS011;52595;51.608;7.216;2023-06-10T09:30:47;7.68;;;4.55;;
65835;SDS011;52595;51.608;7.216;2023-06-10T09:33:13;8.48;;;4.55;;
65835;SDS011;52595;51.608;7.216;2023-06-10T09:35:46;7.45;;;4.55;;
65835;SDS011;52595;51.608;7.216;2023-06-10T09:38:13;7.40;;;4.88;;
65835;SDS011;52595;51.608;7.216;2023-06-10T09:40:53;8.93;;;4.68;;
65835;SDS011;52595;51.608;7.216;2023-06-10T09:43:19;8.00;;;4.50;;
65835;SDS011;52595;51.608;7.216;2023-06-10T09:45:48;6.88;;;4.70;;
65835;SDS011;52595;51.608;7.216;2023-06-10T09:48:14;10.45;;;4.90;;
65835;SDS011;52595;51.608;7.216;2023-06-10T09:50:43;8.75;;;5.13;;
65835;SDS011;52595;51.608;7.216;2023-06-10T09:53:10;12.52;;;5.50;;
65835;SDS011;52595;51.608;7.216;2023-06-10T09:55:39;6.55;;;4.80;;
65835;SDS011;52595;51.608;7.216;2023-06-10T09:58:05;7.70;;;4.85;;
65835;SDS011;52595;51.608;7.216;2023-06-10T10:00:34;11.40;;;4.90;;
65835;SDS011;52595;51.608;7.216;2023-06-10T10:02:59;6.32;;;4.60;;
65835;SDS011;52595;51.608;7.216;2023-06-10T10:05:26;8.05;;;4.70;;
65835;SDS011;52595;51.608;7.216;2023-06-10T10:07:52;6.32;;;4.57;;
65835;SDS011;52595;51.608;7.216;2023-06-10T10:10:18;8.43;;;4.80;;
65835;SDS011;52595;51.608;7.216;2023-06-10T10:12:46;6.90;;;4.70;;
65835;SDS011;52595;51.608;7.216;2023-06-10T10:15:12;6.68;;;4.47;;
65835;SDS011;52595;51.608;7.216;2023-06-10T10:17:40;9.00;;;4.70;;
65835;SDS011;52595;51.608;7.216;2023-06-10T10:20:08;8.10;;;5.00;;
65835;SDS011;52595;51.608;7.216;2023-06-10T10:22:37;6.72;;;4.60;;
65835;SDS011;52595;51.608;7.216;2023-06-10T10:25:49;8.02;;;4.88;;
65835;SDS011;52595;51.608;7.216;2023-06-10T10:28:10;6.15;;;4.75;;
65835;SDS011;52595;51.608;7.216;2023-06-10T10:35:53;7.90;;;5.03;;
65835;SDS011;52595;51.608;7.216;2023-06-10T10:38:20;6.57;;;4.95;;
65835;SDS011;52595;51.608;7.216;2023-06-10T10:40:46;6.47;;;4.70;;
65835;SDS011;52595;51.608;7.216;2023-06-10T10:43:12;10.82;;;4.50;;
65835;SDS011;52595;51.608;7.216;2023-06-10T10:45:39;9.40;;;4.57;;
65835;SDS011;52595;51.608;7.216;2023-06-10T10:48:05;10.75;;;5.60;;
65835;SDS011;52595;51.608;7.216;2023-06-10T10:50:36;10.02;;;4.70;;
65835;SDS011;52595;51.608;7.216;2023-06-10T10:53:02;7.38;;;4.72;;
65835;SDS011;52595;51.608;7.216;2023-06-10T10:55:29;10.40;;;5.22;;
65835;SDS011;52595;51.608;7.216;2023-06-10T11:00:31;6.18;;;4.70;;
65835;SDS011;52595;51.608;7.216;2023-06-10T11:02:58;8.43;;;5.32;;
65835;SDS011;52595;51.608;7.216;2023-06-10T11:05:35;9.68;;;5.05;;
65835;SDS011;52595;51.608;7.216;2023-06-10T11:08:07;8.63;;;5.22;;
65835;SDS011;52595;51.608;7.216;2023-06-10T11:10:37;7.38;;;5.00;;
65835;SDS011;52595;51.608;7.216;2023-06-10T11:13:07;11.70;;;4.95;;
65835;SDS011;52595;51.608;7.216;2023-06-10T11:15:45;6.78;;;5.05;;
65835;SDS011;52595;51.608;7.216;2023-06-10T11:18:25;8.90;;;5.10;;
65835;SDS011;52595;51.608;7.216;2023-06-10T11:21:09;6.00;;;4.43;;
65835;SDS011;52595;51.608;7.216;2023-06-10T11:23:37;6.78;;;4.90;;
65835;SDS011;52595;51.608;7.216;2023-06-10T11:26:13;7.32;;;4.85;;
65835;SDS011;52595;51.608;7.216;2023-06-10T11:31:20;8.55;;;4.72;;
65835;SDS011;52595;51.608;7.216;2023-06-10T11:33:47;6.40;;;4.60;;
65835;SDS011;52595;51.608;7.216;2023-06-10T11:36:13;7.80;;;4.75;;
65835;SDS011;52595;51.608;7.216;2023-06-10T11:38:40;9.38;;;4.97;;
65835;SDS011;52595;51.608;7.216;2023-06-10T11:41:06;6.53;;;4.68;;
65835;SDS011;52595;51.608;7.216;2023-06-10T11:43:32;7.43;;;4.50;;
65835;SDS011;52595;51.608;7.216;2023-06-10T11:45:58;8.18;;;4.80;;
65835;SDS011;52595;51.608;7.216;2023-06-10T11:48:24;7.40;;;4.60;;
65835;SDS011;52595;51.608;7.216;2023-06-10T11:50:53;6.50;;;4.68;;
65835;SDS011;52595;51.608;7.216;2023-06-10T11:53:20;6.60;;;5.03;;
65835;SDS011;52595;51.608;7.216;2023-06-10T11:55:46;8.80;;;4.95;;
65835;SDS011;52595;51.608;7.216;2023-06-10T11:58:13;7.25;;;4.63;;
65835;SDS011;52595;51.608;7.216;2023-06-10T12:00:52;6.38;;;4.80;;
65835;SDS011;52595;51.608;7.216;2023-06-10T12:03:19;6.82;;;4.72;;
65835;SDS011;52595;51.608;7.216;2023-06-10T12:05:58;8.85;;;4.70;;
65835;SDS011;52595;51.608;7.216;2023-06-10T12:08:24;8.93;;;4.90;;
65835;SDS011;52595;51.608;7.216;2023-06-10T12:10:50;8.40;;;4.80;;
65835;SDS011;52595;51.608;7.216;2023-06-10T12:13:16;8.23;;;4.68;;
65835;SDS011;52595;51.608;7.216;2023-06-10T12:15:44;7.30;;;4.78;;
65835;SDS011;52595;51.608;7.216;2023-06-10T12:18:20;9.05;;;4.82;;
65835;SDS011;52595;51.608;7.216;2023-06-10T12:20:47;9.73;;;4.53;;
65835;SDS011;52595;51.608;7.216;2023-06-10T12:23:13;6.82;;;5.00;;
65835;SDS011;52595;51.608;7.216;2023-06-10T12:25:39;8.27;;;4.82;;
65835;SDS011;52595;51.608;7.216;2023-06-10T12:28:15;7.32;;;4.65;;
65835;SDS011;52595;51.608;7.216;2023-06-10T12:30:41;6.97;;;4.78;;
65835;SDS011;52595;51.608;7.216;2023-06-10T12:33:15;7.97;;;4.82;;
65835;SDS011;52595;51.608;7.216;2023-06-10T12:35:46;7.38;;;4.60;;
65835;SDS011;52595;51.608;7.216;2023-06-10T12:38:13;6.60;;;4.97;;
65835;SDS011;52595;51.608;7.216;2023-06-10T12:40:39;6.10;;;4.85;;
65835;SDS011;52595;51.608;7.216;2023-06-10T12:43:05;9.50;;;4.75;;
65835;SDS011;52595;51.608;7.216;2023-06-10T12:45:35;6.63;;;4.68;;
65835;SDS011;52595;51.608;7.216;2023-06-10T12:48:05;8.07;;;4.55;;
65835;SDS011;52595;51.608;7.216;2023-06-10T12:50:52;6.75;;;4.80;;
65835;SDS011;52595;51.608;7.216;2023-06-10T12:53:20;6.50;;;4.80;;
65835;SDS011;52595;51.608;7.216;2023-06-10T12:55:46;6.25;;;4.43;;
65835;SDS011;52595;51.608;7.216;2023-06-10T12:58:12;6.35;;;4.47;;
65835;SDS011;52595;51.608;7.216;2023-06-10T13:00:38;7.22;;;4.57;;
65835;SDS011;52595;51.608;7.216;2023-06-10T13:03:04;7.80;;;4.50;;
65835;SDS011;52595;51.608;7.216;2023-06-10T13:05:32;6.30;;;4.38;;
65835;SDS011;52595;51.608;7.216;2023-06-10T13:07:59;8.68;;;4.63;;
65835;SDS011;52595;51.608;7.216;2023-06-10T13:10:24;7.35;;;4.60;;
65835;SDS011;52595;51.608;7.216;2023-06-10T13:12:51;6.50;;;4.60;;
65835;SDS011;52595;51.608;7.216;2023-06-10T13:15:17;5.90;;;4.40;;
65835;SDS011;52595;51.608;7.216;2023-06-10T13:17:46;7.82;;;5.00;;
65835;SDS011;52595;51.608;7.216;2023-06-10T13:20:14;8.73;;;4.53;;
65835;SDS011;52595;51.608;7.216;2023-06-10T13:22:41;6.95;;;4.70;;
65835;SDS011;52595;51.608;7.216;2023-06-10T13:25:06;6.00;;;4.50;;
65835;SDS011;52595;51.608;7.216;2023-06-10T13:27:33;7.22;;;4.78;;
65835;SDS011;52595;51.608;7.216;2023-06-10T13:30:05;8.02;;;4.55;;
65835;SDS011;52595;51.608;7.216;2023-06-10T13:32:31;6.22;;;4.68;;
65835;SDS011;52595;51.608;7.216;2023-06-10T13:34:56;11.10;;;4.97;;
65835;SDS011;52595;51.608;7.216;2023-06-10T13:37:22;6.80;;;4.45;;
65835;SDS011;52595;51.608;7.216;2023-06-10T13:39:48;7.20;;;4.57;;
65835;SDS011;52595;51.608;7.216;2023-06-10T13:42:15;8.25;;;4.95;;
65835;SDS011;52595;51.608;7.216;2023-06-10T13:44:44;7.57;;;4.43;;
65835;SDS011;52595;51.608;7.216;2023-06-10T13:47:10;5.88;;;4.15;;
65835;SDS011;52595;51.608;7.216;2023-06-10T13:49:36;6.68;;;4.30;;
65835;SDS011;52595;51.608;7.216;2023-06-10T13:52:01;9.05;;;4.55;;
65835;SDS011;52595;51.608;7.216;2023-06-10T13:54:27;7.47;;;4.50;;
65835;SDS011;52595;51.608;7.216;2023-06-10T13:56:53;6.70;;;4.70;;
65835;SDS011;52595;51.608;7.216;2023-06-10T13:59:18;6.97;;;4.60;;
65835;SDS011;52595;51.608;7.216;2023-06-10T14:01:45;6.32;;;4.78;;
65835;SDS011;52595;51.608;7.216;2023-06-10T14:04:10;6.05;;;4.45;;
65835;SDS011;52595;51.608;7.216;2023-06-10T14:06:36;11.13;;;4.65;;
65835;SDS011;52595;51.608;7.216;2023-06-10T14:09:01;6.65;;;4.63;;
65835;SDS011;52595;51.608;7.216;2023-06-10T14:11:27;5.95;;;4.53;;
65835;SDS011;52595;51.608;7.216;2023-06-10T14:13:52;7.60;;;4.65;;
65835;SDS011;52595;51.608;7.216;2023-06-10T14:16:18;7.13;;;4.65;;
65835;SDS011;52595;51.608;7.216;2023-06-10T14:18:43;8.02;;;4.60;;
65835;SDS011;52595;51.608;7.216;2023-06-10T14:21:08;7.03;;;4.35;;
65835;SDS011;52595;51.608;7.216;2023-06-10T14:23:34;6.53;;;4.55;;
65835;SDS011;52595;51.608;7.216;2023-06-10T14:25:59;7.38;;;4.47;;
65835;SDS011;52595;51.608;7.216;2023-06-10T14:28:26;7.45;;;4.43;;
65835;SDS011;52595;51.608;7.216;2023-06-10T14:30:52;6.25;;;4.50;;
65835;SDS011;52595;51.608;7.216;2023-06-10T14:33:18;7.47;;;4.70;;
65835;SDS011;52595;51.608;7.216;2023-06-10T14:35:43;7.00;;;4.40;;
65835;SDS011;52595;51.608;7.216;2023-06-10T14:38:09;5.57;;;4.20;;
65835;SDS011;52595;51.608;7.216;2023-06-10T14:40:34;7.32;;;4.65;;
65835;SDS011;52595;51.608;7.216;2023-06-10T14:43:00;6.53;;;4.70;;
65835;SDS011;52595;51.608;7.216;2023-06-10T14:45:26;7.25;;;4.47;;
65835;SDS011;52595;51.608;7.216;2023-06-10T14:47:52;7.00;;;4.30;;
65835;SDS011;52595;51.608;7.216;2023-06-10T14:50:17;8.10;;;5.05;;
65835;SDS011;52595;51.608;7.216;2023-06-10T14:52:42;8.43;;;4.72;;